Time;durP1;ratioP1;P1;durP2;ratioP2;P2;SDS_P1;SDS_P2;PMS_P1;PMS_P2;Temp;Humidity;BMP_temperature;BMP_pressure;BME280_temperature;BME280_humidity;BME280_pressure;Samples;Min_cycle;Max_cycle;Signal;HPM_P1;HPM_P2
2023/10/01 00:01:43;;;;;;;11.32;4.72;;;;;;;17.42;60.89;100712.66;5065446;28;20028;-79
2023/10/01 00:04:08;;;;;;;12.07;4.65;;;;;;;17.50;60.59;100720.31;5065447;28;20047;-76
2023/10/01 00:06:34;;;;;;;8.73;4.28;;;;;;;17.34;61.00;100711.34;5065143;28;20071;-78
2023/10/01 00:09:00;;;;;;;7.50;4.28;;;;;;;17.42;60.70;100711.81;5064723;28;20056;-79
2023/10/01 00:11:26;;;;;;;9.00;4.57;;;;;;;17.42;60.89;100714.56;5064112;28;20040;-80
2023/10/01 00:13:52;;;;;;;11.35;5.30;;;;;;;17.38;60.95;100712.41;5063362;28;20036;-77
2023/10/01 00:16:17;;;;;;;10.43;4.30;;;;;;;17.36;60.83;100703.59;5063231;28;20599;-78
2023/10/01 00:18:42;;;;;;;22.73;5.60;;;;;;;17.26;61.08;100703.69;5063967;28;20066;-79
2023/10/01 00:21:08;;;;;;;11.37;5.30;;;;;;;17.23;61.31;100709.75;5065125;28;20976;-78
2023/10/01 00:23:33;;;;;;;11.52;4.93;;;;;;;17.21;61.38;100707.28;5065206;28;20361;-78
2023/10/01 00:25:58;;;;;;;8.75;4.80;;;;;;;17.34;61.40;100705.81;5064899;28;20046;-78
2023/10/01 00:28:24;;;;;;;13.80;5.27;;;;;;;17.27;60.81;100702.56;5065043;28;20033;-78
2023/10/01 00:30:49;;;;;;;8.48;4.60;;;;;;;17.14;61.38;100707.63;5065494;28;20273;-79
2023/10/01 00:33:15;;;;;;;10.98;6.20;;;;;;;17.25;61.15;100704.78;5067788;28;20119;-77
2023/10/01 00:35:41;;;;;;;13.02;5.72;;;;;;;17.22;61.40;100695.19;5067706;28;20496;-78
2023/10/01 00:38:07;;;;;;;9.15;4.70;;;;;;;17.09;61.47;100698.53;5066823;28;20032;-70
2023/10/01 00:40:32;;;;;;;10.70;4.53;;;;;;;17.14;61.24;100702.13;5065436;28;20035;-71
2023/10/01 00:42:58;;;;;;;11.33;5.53;;;;;;;17.09;61.67;100698.53;5065472;28;20036;-70
2023/10/01 00:45:23;;;;;;;10.10;4.90;;;;;;;17.08;61.65;100700.47;5065172;28;20276;-70
2023/10/01 00:47:51;;;;;;;8.32;4.28;;;;;;;17.00;62.08;100706.59;5064866;28;20166;-69
2023/10/01 00:50:21;;;;;;;14.00;5.38;;;;;;;17.01;61.92;100698.03;5065255;28;20033;-69
2023/10/01 00:52:49;;;;;;;9.13;4.78;;;;;;;17.02;61.85;100699.66;5064817;28;21308;-69
2023/10/01 00:55:16;;;;;;;13.27;4.53;;;;;;;16.88;61.99;100693.97;5081223;28;20043;-69
2023/10/01 00:57:42;;;;;;;10.18;4.68;;;;;;;16.94;62.21;100691.22;5064987;28;20597;-71
2023/10/01 01:00:09;;;;;;;14.32;4.72;;;;;;;16.85;62.34;100688.22;5065563;28;20115;-69
2023/10/01 01:02:46;;;;;;;8.20;3.95;;;;;;;16.90;62.55;100691.75;5064700;28;20474;-70
2023/10/01 01:05:20;;;;;;;10.70;5.10;;;;;;;17.02;61.96;100693.38;5065373;28;20406;-69
2023/10/01 01:07:48;;;;;;;12.20;4.68;;;;;;;17.18;61.53;100694.09;5065097;28;20033;-70
2023/10/01 01:10:18;;;;;;;12.15;5.45;;;;;;;17.33;61.39;100687.63;5065093;28;20040;-70
2023/10/01 01:12:45;;;;;;;10.07;4.43;;;;;;;17.35;61.15;100688.16;5064995;28;20033;-70
2023/10/01 01:15:13;;;;;;;10.43;4.97;;;;;;;17.03;61.72;100689.47;5064205;28;20136;-70
2023/10/01 01:17:40;;;;;;;10.38;4.50;;;;;;;17.04;62.01;100682.88;5065483;28;20115;-69
2023/10/01 01:20:09;;;;;;;8.70;4.28;;;;;;;17.17;61.63;100692.44;5065468;28;20037;-70
2023/10/01 01:22:39;;;;;;;9.70;5.00;;;;;;;17.10;61.78;100678.97;5064508;28;20389;-71
2023/10/01 01:25:10;;;;;;;9.70;4.80;;;;;;;16.92;62.30;100683.25;5064781;28;21153;-69
2023/10/01 01:27:40;;;;;;;11.60;4.75;;;;;;;16.83;62.95;100691.28;5064902;28;20850;-69
2023/10/01 01:30:08;;;;;;;9.90;4.65;;;;;;;16.96;62.54;100689.00;5065392;28;20039;-70
2023/10/01 01:32:36;;;;;;;15.20;5.28;;;;;;;17.00;62.48;100681.81;5063996;28;20047;-69
2023/10/01 01:35:02;;;;;;;13.05;4.85;;;;;;;16.95;62.41;100685.41;5065040;28;20062;-70
2023/10/01 01:37:46;;;;;;;10.25;4.18;;;;;;;16.85;63.16;100679.97;5065115;28;20110;-70
2023/10/01 01:40:24;;;;;;;10.27;5.53;;;;;;;16.82;63.03;100684.09;5065405;28;20505;-69
2023/10/01 01:42:51;;;;;;;8.27;4.65;;;;;;;16.74;63.10;100671.75;5064277;28;20040;-68
2023/10/01 01:45:19;;;;;;;8.27;4.80;;;;;;;16.68;63.52;100668.22;5064252;28;20055;-69
2023/10/01 01:47:45;;;;;;;12.55;5.75;;;;;;;16.65;63.79;100665.22;5064957;28;20048;-77
2023/10/01 01:50:21;;;;;;;9.57;5.10;;;;;;;16.60;64.26;100663.31;5067370;28;20039;-78
2023/10/01 01:52:49;;;;;;;11.30;5.60;;;;;;;16.23;65.44;100662.69;5067410;28;20028;-78
2023/10/01 01:55:26;;;;;;;9.55;4.90;;;;;;;16.49;64.55;100653.47;5066984;28;20041;-80
2023/10/01 01:58:08;;;;;;;8.13;4.72;;;;;;;16.47;64.84;100652.94;5066686;28;20064;-78
2023/10/01 02:00:37;;;;;;;13.85;6.30;;;;;;;16.57;64.22;100652.88;5067315;28;20097;-79
2023/10/01 02:03:14;;;;;;;12.00;6.18;;;;;;;16.38;64.72;100650.75;5066547;28;20436;-79
2023/10/01 02:05:41;;;;;;;12.20;5.50;;;;;;;16.28;65.38;100656.31;5067801;28;20475;-78
2023/10/01 02:08:23;;;;;;;10.50;5.63;;;;;;;16.36;65.17;100658.47;5066780;28;20477;-78
2023/10/01 02:10:50;;;;;;;9.13;4.43;;;;;;;16.54;64.74;100656.19;5066913;28;20036;-79
2023/10/01 02:13:17;;;;;;;10.88;4.93;;;;;;;16.53;64.46;100649.06;5066316;28;20060;-78
2023/10/01 02:15:45;;;;;;;11.48;6.03;;;;;;;16.43;65.11;100653.47;5067372;28;20127;-78
2023/10/01 02:18:13;;;;;;;9.98;5.65;;;;;;;16.32;65.41;100649.13;5066508;28;20682;-79
2023/10/01 02:20:43;;;;;;;11.02;5.70;;;;;;;16.49;64.74;100650.72;5066343;28;20106;-79
2023/10/01 02:23:12;;;;;;;11.57;5.68;;;;;;;16.40;64.94;100647.72;5066270;28;20033;-78
2023/10/01 02:25:45;;;;;;;13.10;5.90;;;;;;;16.41;64.64;100643.88;5066156;28;20033;-78
2023/10/01 02:28:13;;;;;;;11.17;5.17;;;;;;;16.33;64.92;100642.56;5065291;28;20032;-79
2023/10/01 02:30:41;;;;;;;10.95;5.35;;;;;;;16.42;64.90;100638.09;5063653;28;20683;-78
2023/10/01 02:33:16;;;;;;;9.15;5.78;;;;;;;16.30;65.16;100641.19;5066051;28;20032;-79
2023/10/01 02:35:42;;;;;;;10.45;4.85;;;;;;;16.44;64.51;100629.53;5066547;28;20111;-79
2023/10/01 02:38:36;;;;;;;9.85;5.07;;;;;;;16.45;64.67;100633.97;5066898;28;20115;-80
2023/10/01 02:40:57;;;;;;;11.02;5.25;;;;;;;16.24;64.69;100641.47;5066371;28;20035;-79
2023/10/01 02:43:25;;;;;;;11.07;5.00;;;;;;;16.27;64.69;100641.72;5066221;28;20041;-80
2023/10/01 02:45:51;;;;;;;9.23;4.40;;;;;;;16.33;64.49;100639.81;5067211;28;20482;-78
2023/10/01 02:48:16;;;;;;;8.25;4.55;;;;;;;16.19;64.79;100645.88;5067229;28;20043;-79
2023/10/01 02:50:52;;;;;;;9.95;4.85;;;;;;;16.39;64.27;100638.66;5067010;28;20181;-77
2023/10/01 02:53:22;;;;;;;11.00;5.28;;;;;;;16.45;63.92;100637.50;5066233;28;20371;-78
2023/10/01 02:55:51;;;;;;;10.18;4.95;;;;;;;16.47;63.78;100634.50;5066587;28;20059;-81
2023/10/01 02:58:27;;;;;;;10.50;5.10;;;;;;;16.49;63.84;100636.97;5065357;28;20098;-69
2023/10/01 03:00:53;;;;;;;9.52;5.05;;;;;;;16.50;63.66;100641.34;5063251;28;20044;-70
2023/10/01 03:03:19;;;;;;;9.45;4.82;;;;;;;16.56;63.51;100638.28;5062455;28;20036;-69
2023/10/01 03:05:48;;;;;;;11.80;5.50;;;;;;;16.45;63.50;100637.50;5062899;28;20115;-69
2023/10/01 03:11:03;;;;;;;12.50;5.43;;;;;;;16.47;63.37;100644.69;5063630;28;20073;-70
2023/10/01 03:13:30;;;;;;;9.77;5.13;;;;;;;16.42;63.56;100653.78;5062765;28;20071;-69
2023/10/01 03:16:40;;;;;;;10.30;4.90;;;;;;;16.42;63.42;100662.03;5063412;28;20047;-70
2023/10/01 03:19:18;;;;;;;8.90;4.65;;;;;;;16.33;63.54;100661.81;5062879;28;20416;-69
2023/10/01 03:24:29;;;;;;;8.77;4.13;;;;;;;16.18;64.04;100659.94;5062978;28;20047;-69
2023/10/01 03:26:57;;;;;;;10.60;4.65;;;;;;;16.11;64.16;100654.72;5063057;28;20045;-69
2023/10/01 03:29:34;;;;;;;9.32;4.18;;;;;;;16.05;64.21;100653.91;5063101;28;20036;-69
2023/10/01 03:32:27;;;;;;;8.82;4.03;;;;;;;16.01;64.56;100655.56;5063313;28;20038;-68
2023/10/01 03:34:46;;;;;;;12.02;4.32;;;;;;;16.07;64.00;100653.63;5062957;28;20035;-68
2023/10/01 03:37:19;;;;;;;8.75;4.75;;;;;;;16.00;64.31;100651.16;5063241;28;20033;-68
2023/10/01 03:39:45;;;;;;;11.70;5.18;;;;;;;16.03;64.34;100652.56;5063091;28;20051;-70
2023/10/01 03:42:17;;;;;;;14.95;5.80;;;;;;;16.11;63.87;100654.72;5062406;28;20045;-69
2023/10/01 03:47:29;;;;;;;8.82;3.67;;;;;;;16.18;63.72;100660.75;5063010;28;20063;-69
2023/10/01 03:49:55;;;;;;;12.80;5.00;;;;;;;16.05;63.66;100656.66;5063017;28;20028;-69
2023/10/01 03:52:21;;;;;;;9.13;4.25;;;;;;;16.06;64.09;100657.50;5061692;28;20710;-69
2023/10/01 03:57:27;;;;;;;8.75;4.18;;;;;;;16.21;63.64;100649.19;5062674;28;20047;-68
2023/10/01 03:59:52;;;;;;;11.90;4.38;;;;;;;16.13;63.68;100655.25;5062329;28;20740;-69
2023/10/01 04:02:28;;;;;;;10.70;4.80;;;;;;;16.26;63.57;100651.09;5062308;28;20119;-70
2023/10/01 04:04:57;;;;;;;10.07;3.90;;;;;;;16.31;63.61;100653.00;5062454;28;20036;-70
2023/10/01 04:07:40;;;;;;;8.52;3.85;;;;;;;16.33;63.51;100653.56;5063841;28;20120;-69
2023/10/01 04:10:13;;;;;;;9.75;3.92;;;;;;;16.30;63.61;100654.09;5066431;28;20068;-70
2023/10/01 04:12:44;;;;;;;9.23;4.60;;;;;;;16.23;63.42;100651.69;5065994;28;20107;-71
2023/10/01 04:15:10;;;;;;;12.13;5.20;;;;;;;16.21;63.91;100645.63;5066642;28;20044;-69
2023/10/01 04:17:36;;;;;;;11.27;4.88;;;;;;;16.20;63.46;100650.31;5066388;28;20040;-70
2023/10/01 04:20:13;;;;;;;13.15;4.82;;;;;;;16.30;63.48;100652.19;5066430;28;20040;-70
2023/10/01 04:22:40;;;;;;;10.63;4.72;;;;;;;16.30;63.62;100640.34;5066304;28;20050;-68
2023/10/01 04:25:10;;;;;;;9.00;4.90;;;;;;;16.34;63.13;100645.00;5066219;28;20512;-69
2023/10/01 04:27:42;;;;;;;14.45;4.70;;;;;;;16.31;63.38;100642.81;5065949;28;20063;-69
2023/10/01 04:30:10;;;;;;;7.85;4.75;;;;;;;16.23;63.64;100640.66;5065063;28;20047;-70
2023/10/01 04:32:36;;;;;;;11.32;4.45;;;;;;;16.20;63.27;100646.72;5065533;28;20071;-70
2023/10/01 04:35:14;;;;;;;9.00;3.97;;;;;;;16.18;63.56;100638.75;5065827;28;20033;-70
2023/10/01 04:37:43;;;;;;;10.68;4.07;;;;;;;16.22;63.54;100639.84;5065483;28;20082;-69
2023/10/01 04:43:04;;;;;;;8.45;4.13;;;;;;;16.35;63.10;100643.09;5064658;28;20109;-69
2023/10/01 04:45:36;;;;;;;8.15;4.28;;;;;;;16.34;63.24;100646.94;5064689;28;20044;-69
2023/10/01 04:48:15;;;;;;;9.65;3.90;;;;;;;16.52;62.68;100648.22;5065133;28;20052;-69
2023/10/01 04:50:41;;;;;;;9.52;4.57;;;;;;;16.42;62.89;100646.34;5065398;28;20111;-70
2023/10/01 04:53:07;;;;;;;7.95;4.15;;;;;;;16.47;62.53;100645.50;5064436;28;20128;-70
2023/10/01 04:55:41;;;;;;;9.02;3.65;;;;;;;16.61;62.35;100648.47;5064227;28;20421;-69
2023/10/01 04:58:12;;;;;;;11.18;5.07;;;;;;;16.48;62.57;100646.31;5064831;28;20111;-69
2023/10/01 05:00:39;;;;;;;9.45;4.10;;;;;;;16.59;62.75;100652.59;5065420;28;20575;-72
2023/10/01 05:03:06;;;;;;;11.75;4.07;;;;;;;16.59;62.14;100661.69;5064694;28;20103;-70
2023/10/01 05:05:33;;;;;;;12.48;4.28;;;;;;;16.49;62.04;100659.81;5065862;28;20044;-69
2023/10/01 05:07:58;;;;;;;9.20;3.78;;;;;;;16.61;62.11;100662.22;5065004;28;20017;-69
2023/10/01 05:10:25;;;;;;;10.03;4.13;;;;;;;16.63;61.63;100657.25;5065216;28;20081;-70
2023/10/01 05:12:55;;;;;;;8.32;3.95;;;;;;;16.57;61.81;100652.88;5064228;28;20307;-69
2023/10/01 05:15:25;;;;;;;8.75;3.45;;;;;;;16.60;61.59;100655.06;5064827;28;20048;-69
2023/10/01 05:17:52;;;;;;;9.00;4.10;;;;;;;16.63;61.69;100660.00;5064919;28;20090;-69
2023/10/01 05:20:19;;;;;;;7.60;3.47;;;;;;;16.49;61.65;100664.47;5064427;28;20559;-69
2023/10/01 05:22:50;;;;;;;11.15;5.10;;;;;;;16.57;61.66;100667.47;5064755;28;20033;-70
2023/10/01 05:25:18;;;;;;;9.50;4.05;;;;;;;16.63;61.59;100659.19;5065324;28;20611;-70
2023/10/01 05:27:44;;;;;;;13.55;4.20;;;;;;;16.57;61.48;100661.97;5064637;28;20655;-70
2023/10/01 05:30:34;;;;;;;16.60;5.75;;;;;;;16.45;61.30;100659.53;5065318;28;20082;-69
2023/10/01 05:32:54;;;;;;;9.93;4.10;;;;;;;16.42;61.61;100660.09;5065520;28;20044;-69
2023/10/01 05:35:22;;;;;;;7.85;3.75;;;;;;;16.33;61.99;100657.09;5065012;28;20503;-71
2023/10/01 05:37:49;;;;;;;9.88;4.05;;;;;;;16.41;61.73;100663.97;5065165;28;20409;-70
2023/10/01 05:40:15;;;;;;;9.05;4.65;;;;;;;16.42;61.47;100651.84;5066024;28;20076;-69
2023/10/01 05:42:41;;;;;;;12.65;4.55;;;;;;;16.41;61.93;100660.41;5064552;28;20488;-69
2023/10/01 05:45:14;;;;;;;11.77;4.13;;;;;;;16.41;61.63;100655.72;5064785;28;20039;-69
2023/10/01 05:47:54;;;;;;;11.07;4.63;;;;;;;16.48;61.27;100663.66;5064741;28;20397;-69
2023/10/01 05:50:22;;;;;;;11.05;4.78;;;;;;;16.42;61.41;100649.09;5064573;28;20028;-69
2023/10/01 05:52:47;;;;;;;10.85;4.72;;;;;;;16.35;61.57;100654.09;5064146;28;20036;-70
2023/10/01 05:55:15;;;;;;;9.95;4.43;;;;;;;16.32;61.77;100652.72;5064374;28;20645;-73
2023/10/01 05:57:41;;;;;;;10.75;5.18;;;;;;;16.18;62.03;100649.75;5064710;28;20076;-72
2023/10/01 06:00:17;;;;;;;13.38;4.43;;;;;;;16.33;61.63;100646.09;5063264;28;20028;-71
2023/10/01 06:03:00;;;;;;;11.40;3.70;;;;;;;16.26;61.97;100653.03;5063532;28;20032;-69
2023/10/01 06:05:32;;;;;;;11.13;5.33;;;;;;;16.35;61.71;100656.84;5063991;28;20032;-69
2023/10/01 06:07:58;;;;;;;11.88;4.32;;;;;;;16.29;62.20;100660.72;5064439;28;20028;-71
2023/10/01 06:10:26;;;;;;;21.52;6.15;;;;;;;16.39;61.75;100660.69;5063677;28;20040;-70
2023/10/01 06:12:56;;;;;;;12.05;5.05;;;;;;;16.55;61.53;100658.69;5063695;28;20044;-69
2023/10/01 06:15:25;;;;;;;12.20;4.72;;;;;;;16.30;61.46;100656.84;5063610;28;20124;-71
2023/10/01 06:17:50;;;;;;;11.00;4.80;;;;;;;16.34;61.86;100661.53;5062826;28;20111;-72
2023/10/01 06:20:26;;;;;;;13.07;6.18;;;;;;;16.39;61.74;100660.69;5063633;28;20151;-72
2023/10/01 06:22:52;;;;;;;13.93;4.53;;;;;;;16.43;61.82;100663.69;5062872;28;20649;-72
2023/10/01 06:25:37;;;;;;;14.48;4.90;;;;;;;16.47;61.83;100661.19;5063836;28;20036;-69
2023/10/01 06:28:09;;;;;;;9.10;4.35;;;;;;;16.47;61.87;100661.19;5063649;28;20670;-71
2023/10/01 06:30:34;;;;;;;13.50;4.93;;;;;;;16.44;61.81;100662.56;5062277;28;20067;-70
2023/10/01 06:32:59;;;;;;;17.38;5.30;;;;;;;16.45;61.43;100665.03;5062994;28;20033;-70
2023/10/01 06:35:25;;;;;;;14.07;4.63;;;;;;;16.46;61.95;100668.63;5063148;28;20645;-71
2023/10/01 06:37:51;;;;;;;10.80;4.63;;;;;;;16.51;61.87;100665.03;5064179;28;20035;-69
2023/10/01 06:40:31;;;;;;;16.10;6.20;;;;;;;16.60;61.47;100666.06;5063708;28;20040;-68
2023/10/01 06:43:01;;;;;;;12.00;5.70;;;;;;;16.59;61.64;100669.94;5064495;28;20044;-70
2023/10/01 06:45:39;;;;;;;13.40;4.78;;;;;;;16.76;61.38;100668.75;5065127;28;20030;-70
2023/10/01 06:48:09;;;;;;;17.17;4.95;;;;;;;16.63;61.71;100665.50;5063513;28;20036;-68
2023/10/01 06:50:39;;;;;;;15.75;5.30;;;;;;;16.49;61.99;100658.97;5063313;28;20040;-70
2023/10/01 06:53:07;;;;;;;12.57;5.07;;;;;;;16.60;62.42;100657.81;5062363;28;20117;-71
2023/10/01 06:55:32;;;;;;;15.57;5.40;;;;;;;16.75;62.34;100667.91;5062791;28;20032;-70
2023/10/01 06:58:00;;;;;;;12.95;4.78;;;;;;;16.92;62.13;100666.72;5063474;28;20043;-71
2023/10/01 07:00:30;;;;;;;14.85;5.07;;;;;;;17.02;61.56;100657.56;5062578;28;20048;-71
2023/10/01 07:03:13;;;;;;;12.60;5.10;;;;;;;16.95;61.91;100666.13;5062082;28;20175;-69
2023/10/01 07:05:39;;;;;;;14.90;5.00;;;;;;;16.83;62.39;100671.16;5062965;28;20494;-71
2023/10/01 07:08:05;;;;;;;19.58;6.97;;;;;;;16.91;62.48;100671.41;5062363;28;20032;-70
2023/10/01 07:10:31;;;;;;;15.45;5.35;;;;;;;16.95;62.66;100681.81;5062812;28;20090;-69
2023/10/01 07:13:04;;;;;;;18.25;5.82;;;;;;;16.94;62.55;100691.22;5062172;28;20467;-70
2023/10/01 07:15:32;;;;;;;12.25;5.53;;;;;;;17.02;62.58;100687.84;5063069;28;20067;-74
2023/10/01 07:17:58;;;;;;;13.55;5.93;;;;;;;17.06;62.57;100688.94;5062571;28;20029;-76
2023/10/01 07:20:24;;;;;;;13.32;5.18;;;;;;;17.26;62.08;100687.16;5062246;28;20527;-72
2023/10/01 07:22:51;;;;;;;13.93;6.22;;;;;;;17.41;61.77;100671.59;5062298;28;20032;-71
2023/10/01 07:25:37;;;;;;;12.70;4.95;;;;;;;17.52;61.75;100678.66;5062025;28;20032;-71
2023/10/01 07:28:06;;;;;;;13.25;6.10;;;;;;;17.37;62.55;100677.69;5062453;28;20095;-71
2023/10/01 07:30:45;;;;;;;14.68;5.95;;;;;;;17.57;62.11;100670.38;5062537;28;20028;-70
2023/10/01 07:33:10;;;;;;;53.67;9.52;;;;;;;17.62;61.91;100669.47;5061419;28;20420;-71
2023/10/01 07:35:41;;;;;;;13.43;5.43;;;;;;;17.67;61.71;100676.88;5062112;28;20516;-73
2023/10/01 07:38:06;;;;;;;18.23;6.22;;;;;;;17.68;61.45;100673.81;5062237;28;20032;-70
2023/10/01 07:40:50;;;;;;;12.00;5.35;;;;;;;17.81;61.94;100683.34;5062631;28;20082;-70
2023/10/01 07:43:16;;;;;;;;;;;;;;;17.83;61.28;100683.06;5065617;28;20028;-70
2023/10/01 07:45:55;;;;;;;16.63;6.60;;;;;;;17.60;62.41;100677.22;5065920;28;19920;-70
2023/10/01 07:48:21;;;;;;;17.50;6.70;;;;;;;17.70;62.41;100679.03;5065746;28;20044;-70
2023/10/01 07:50:47;;;;;;;18.17;6.25;;;;;;;17.77;62.27;100690.56;5066214;28;20721;-70
2023/10/01 07:53:13;;;;;;;17.80;6.30;;;;;;;17.78;62.35;100685.84;5065825;28;20056;-70
2023/10/01 07:55:38;;;;;;;16.00;6.75;;;;;;;17.62;62.83;100683.25;5065763;28;20067;-70
2023/10/01 08:00:58;;;;;;;17.40;6.25;;;;;;;17.88;62.74;100673.91;5066130;28;20043;-70
2023/10/01 08:05:49;;;;;;;15.55;6.32;;;;;;;17.83;63.11;100667.34;5065783;28;20103;-71
2023/10/01 08:08:23;;;;;;;14.68;6.28;;;;;;;17.94;62.56;100679.06;5066104;28;20044;-70
2023/10/01 08:10:49;;;;;;;13.23;5.88;;;;;;;18.03;62.73;100687.53;5066338;28;20063;-71
2023/10/01 08:13:24;;;;;;;18.73;6.70;;;;;;;18.00;63.04;100679.81;5065262;28;20269;-71
2023/10/01 08:16:01;;;;;;;18.67;6.45;;;;;;;18.07;63.26;100688.59;5066703;28;20064;-71
2023/10/01 08:18:34;;;;;;;17.80;7.05;;;;;;;18.14;63.17;100690.19;5066068;28;20476;-70
2023/10/01 08:21:02;;;;;;;16.65;6.13;;;;;;;18.23;63.07;100693.97;5065668;28;20505;-70
2023/10/01 08:23:30;;;;;;;14.73;7.28;;;;;;;18.30;63.25;100691.69;5064883;28;20055;-69
2023/10/01 08:25:56;;;;;;;21.52;6.18;;;;;;;18.43;63.31;100686.53;5065641;28;20040;-70
2023/10/01 08:31:01;;;;;;;15.38;6.25;;;;;;;18.59;62.95;100686.34;5065171;28;20040;-70
2023/10/01 08:33:32;;;;;;;13.07;5.70;;;;;;;18.60;63.04;100688.81;5065679;28;20123;-69
2023/10/01 08:36:14;;;;;;;14.32;6.47;;;;;;;18.65;62.99;100685.16;5065412;28;20044;-70
2023/10/01 08:38:47;;;;;;;15.35;6.72;;;;;;;18.69;63.24;100683.44;5065364;28;20532;-69
2023/10/01 08:41:23;;;;;;;27.30;7.53;;;;;;;18.69;63.33;100672.41;5064963;28;20051;-70
2023/10/01 08:44:08;;;;;;;18.38;7.32;;;;;;;18.74;63.25;100677.84;5065524;28;20036;-69
2023/10/01 08:46:39;;;;;;;15.60;6.20;;;;;;;18.88;63.25;100682.63;5065151;28;20045;-70
2023/10/01 08:49:22;;;;;;;13.30;5.28;;;;;;;19.01;62.89;100692.94;5064982;28;20041;-72
2023/10/01 08:51:48;;;;;;;14.32;6.00;;;;;;;18.96;62.96;100694.94;5065326;28;20081;-72
2023/10/01 08:54:17;;;;;;;40.53;8.50;;;;;;;19.07;63.47;100690.06;5064236;28;20036;-72
2023/10/01 08:56:44;;;;;;;22.55;7.88;;;;;;;19.13;63.39;100695.22;5065053;28;20329;-72
2023/10/01 08:59:23;;;;;;;18.35;6.95;;;;;;;18.41;66.47;100692.34;5064483;28;20054;-71
2023/10/01 09:01:52;;;;;;;54.08;11.10;;;;;;;18.28;68.08;100699.44;5063187;28;20036;-75
2023/10/01 09:04:44;;;;;;;23.55;20.90;;;;;;;18.55;69.60;100702.66;5065082;28;20527;-71
2023/10/01 09:07:18;;;;;;;86.75;82.13;;;;;;;18.40;70.16;100695.41;5064688;28;20044;-72
2023/10/01 09:09:52;;;;;;;110.40;104.60;;;;;;;18.29;69.50;100701.06;5065036;28;20064;-72
2023/10/01 09:12:18;;;;;;;68.65;64.88;;;;;;;18.44;69.38;100690.94;5064379;28;20021;-76
2023/10/01 09:14:46;;;;;;;25.38;23.08;;;;;;;18.70;67.81;100692.53;5065500;28;20121;-78
2023/10/01 09:17:24;;;;;;;96.85;91.40;;;;;;;18.48;70.79;100697.53;5065247;28;20072;-78
2023/10/01 09:19:51;;;;;;;70.35;66.28;;;;;;;18.39;69.65;100696.53;5065740;28;20470;-79
2023/10/01 09:25:14;;;;;;;67.22;63.55;;;;;;;18.44;70.75;100693.72;5065508;28;20060;-77
2023/10/01 09:28:02;;;;;;;87.72;83.18;;;;;;;18.47;70.89;100689.53;5064568;28;20036;-79
2023/10/01 09:30:31;;;;;;;156.35;149.02;;;;;;;18.64;70.28;100689.03;5064797;28;20402;-71
2023/10/01 09:33:04;;;;;;;24.25;21.83;;;;;;;18.71;70.45;100689.50;5064213;28;20036;-72
2023/10/01 09:35:59;;;;;;;163.75;155.75;;;;;;;18.83;69.78;100691.81;5064722;28;20029;-75
2023/10/01 09:38:27;;;;;;;78.30;73.97;;;;;;;18.69;69.89;100700.03;5064568;28;20386;-71
2023/10/01 09:40:55;;;;;;;166.25;158.32;;;;;;;18.83;69.16;100694.56;5063696;28;20438;-80
2023/10/01 09:43:24;;;;;;;108.18;102.95;;;;;;;18.94;69.16;100692.47;5064692;28;20029;-80
2023/10/01 09:45:51;;;;;;;55.42;51.92;;;;;;;19.13;68.58;100691.63;5064547;28;20044;-80
2023/10/01 09:48:33;;;;;;;86.47;81.93;;;;;;;19.04;69.83;100683.19;5066377;28;20086;-82
2023/10/01 09:51:03;;;;;;;80.70;76.25;;;;;;;19.08;68.91;100677.91;5064561;28;20474;-82
2023/10/01 09:53:37;;;;;;;62.80;59.20;;;;;;;19.02;68.99;100689.03;5064463;28;20036;-81
2023/10/01 09:56:04;;;;;;;21.70;18.95;;;;;;;19.35;67.74;100679.16;5064961;28;20383;-81
2023/10/01 09:58:31;;;;;;;26.65;24.17;;;;;;;19.22;67.90;100670.50;5067321;28;20052;-80
2023/10/01 10:01:01;;;;;;;37.78;34.35;;;;;;;19.38;68.48;100678.56;5065099;28;20040;-81
2023/10/01 10:03:36;;;;;;;24.02;22.05;;;;;;;19.39;67.06;100680.19;5064966;28;20203;-81
2023/10/01 10:06:06;;;;;;;24.60;22.67;;;;;;;19.42;68.63;100676.00;5064467;28;20909;-81
2023/10/01 10:08:37;;;;;;;19.42;11.60;;;;;;;19.57;67.27;100672.13;5065040;28;20044;-80
2023/10/01 10:11:07;;;;;;;21.75;18.00;;;;;;;19.50;68.04;100668.97;5065058;28;20039;-80
2023/10/01 10:13:45;;;;;;;32.75;28.50;;;;;;;19.65;68.76;100663.13;5064244;28;20032;-74
2023/10/01 10:19:20;;;;;;;13.70;10.90;;;;;;;19.76;67.95;100665.72;5064630;28;20481;-77
2023/10/01 10:24:35;;;;;;;17.13;12.77;;;;;;;20.06;67.25;100674.56;5062688;28;20086;-77
2023/10/01 10:27:07;;;;;;;15.93;8.82;;;;;;;20.14;66.89;100673.03;5062569;28;20573;-76
2023/10/01 10:29:57;;;;;;;19.10;10.98;;;;;;;20.16;66.88;100665.25;5062781;28;20032;-77
2023/10/01 10:32:24;;;;;;;16.60;8.32;;;;;;;19.95;66.24;100663.69;5062485;28;20275;-77
2023/10/01 10:35:04;;;;;;;15.52;8.63;;;;;;;20.15;66.64;100656.16;5063734;28;20378;-77
2023/10/01 10:37:45;;;;;;;15.93;7.45;;;;;;;20.20;65.97;100648.88;5064131;28;20087;-77
2023/10/01 10:43:01;;;;;;;14.77;7.82;;;;;;;20.11;66.92;100649.59;5063229;28;20047;-74
2023/10/01 10:45:31;;;;;;;17.70;9.05;;;;;;;20.17;67.05;100653.06;5065184;28;20692;-75
2023/10/01 10:48:02;;;;;;;18.00;7.78;;;;;;;20.36;66.25;100643.81;5064767;28;20418;-75
2023/10/01 10:50:51;;;;;;;16.50;8.13;;;;;;;20.34;66.39;100652.41;5062792;28;20032;-74
2023/10/01 10:53:29;;;;;;;18.52;6.03;;;;;;;20.34;65.88;100652.41;5065145;28;20095;-74
2023/10/01 10:56:00;;;;;;;16.35;5.65;;;;;;;20.29;64.99;100660.84;5064080;28;20054;-74
2023/10/01 10:58:40;;;;;;;12.60;6.47;;;;;;;20.56;65.31;100648.09;5064668;28;20140;-76
2023/10/01 11:01:16;;;;;;;15.35;6.25;;;;;;;20.63;64.91;100648.47;5064292;28;20117;-75
2023/10/01 11:03:47;;;;;;;18.92;6.63;;;;;;;20.62;64.22;100668.19;5062204;28;20044;-75
2023/10/01 11:06:22;;;;;;;16.30;5.38;;;;;;;20.58;65.41;100661.63;5063607;28;20032;-73
2023/10/01 11:08:50;;;;;;;17.42;5.65;;;;;;;20.75;66.41;100667.31;5062966;28;20740;-75
2023/10/01 11:11:29;;;;;;;12.15;5.68;;;;;;;20.84;65.70;100658.25;5062963;28;20481;-75
2023/10/01 11:14:03;;;;;;;18.42;5.70;;;;;;;20.67;64.86;100656.13;5062554;28;20116;-75
2023/10/01 11:16:39;;;;;;;15.25;5.50;;;;;;;20.75;65.20;100649.84;5062868;28;20036;-74
2023/10/01 11:19:13;;;;;;;15.88;5.65;;;;;;;20.61;65.01;100650.72;5063200;28;20037;-75
2023/10/01 11:21:55;;;;;;;16.30;7.60;;;;;;;20.63;64.65;100642.09;5062892;28;20517;-77
2023/10/01 11:24:39;;;;;;;18.05;6.70;;;;;;;20.68;64.40;100647.53;5062982;28;20501;-76
2023/10/01 11:27:21;;;;;;;14.60;5.13;;;;;;;20.91;63.71;100641.19;5062849;28;20478;-75
2023/10/01 11:30:24;;;;;;;18.70;5.85;;;;;;;20.96;65.20;100632.75;5063081;28;20041;-76
2023/10/01 11:33:29;;;;;;;13.75;6.45;;;;;;;21.09;65.02;100631.88;5030106;28;20044;-73
2023/10/01 11:36:06;;;;;;;14.50;6.03;;;;;;;21.19;64.99;100646.66;5063129;28;20048;-73
2023/10/01 11:38:34;;;;;;;11.68;6.22;;;;;;;21.32;63.97;100640.19;5062998;28;20037;-72
2023/10/01 11:41:07;;;;;;;15.73;5.38;;;;;;;21.56;63.51;100636.25;5062903;28;20055;-74
2023/10/01 11:43:40;;;;;;;;;;;;;;;21.44;64.06;100644.34;5063045;28;20039;-73
2023/10/01 11:46:19;;;;;;;13.45;5.28;;;;;;;21.45;64.22;100638.50;5062461;28;19930;-75
2023/10/01 11:49:00;;;;;;;12.65;5.55;;;;;;;21.41;63.55;100636.66;5062287;28;20037;-73
2023/10/01 11:51:32;;;;;;;17.65;6.90;;;;;;;21.34;62.72;100629.59;5062771;28;20039;-72
2023/10/01 11:54:09;;;;;;;12.87;5.50;;;;;;;21.40;62.74;100627.50;5061996;28;20037;-73
2023/10/01 11:56:37;;;;;;;16.98;6.03;;;;;;;21.52;62.47;100629.69;5062648;28;20094;-73
2023/10/01 11:59:03;;;;;;;15.88;6.00;;;;;;;21.66;62.55;100621.28;5062615;28;20063;-75
2023/10/01 12:01:38;;;;;;;17.48;8.02;;;;;;;21.69;61.46;100620.66;5062095;28;20070;-75
2023/10/01 12:04:06;;;;;;;16.83;6.05;;;;;;;21.51;62.30;100616.97;5061950;28;20036;-74
2023/10/01 12:06:34;;;;;;;15.10;6.93;;;;;;;21.66;62.69;100609.38;5062153;28;20064;-73
2023/10/01 12:09:02;;;;;;;16.42;5.60;;;;;;;21.75;62.39;100610.22;5062700;28;20037;-74
2023/10/01 12:11:27;;;;;;;16.15;6.25;;;;;;;21.91;62.60;100596.75;5062344;28;20102;-74